KISW/ISW METAR and TAF weather

Enter ICAO airport designator
Station Type Date Time Source
KISW METAR 2021/01/16 02:54 UTC NOAA

KISW 160254Z AUTO 35006KT 7SM -SN BKN007 OVC038 01/00 A2961 RMK AO2 CIG 005V010 SLP035 P0001 60002 T00110000 52001


Station Type Date Time Source
KISW Decoded METAR 2021/01/16 02:54 UTC NOAA

WI RAPIDS ALEXANDER FIELD, WI, United States (KISW) 44-22N 89-50W 307M
Jan 15, 2021 - 09:54 PM EST / 2021.01.16 0254 UTC
Wind: from the N (350 degrees) at 7 MPH (6 KT):0
Visibility: 7 mile(s):0
Sky conditions: overcast
Weather: light snow
Precipitation last hour: 0.01 inches
Temperature: 34.0 F (1.1 C)
Windchill: 28 F (-2 C):1
Dew Point: 32.0 F (0.0 C)
Relative Humidity: 92%
Pressure (altimeter): 29.61 in. Hg (1002 hPa)
Pressure tendency: 0.00 inches (0.1 hPa) higher than three hours ago
ob: KISW 160254Z AUTO 35006KT 7SM -SN BKN007 OVC038 01/00 A2961 RMK AO2 CIG 005V010 SLP035 P0001 60002 T00110000 52001
cycle: 3

Station Type Date Time Source
KISW TAF UTC NOAA

Error!

Example: see airport list